Mccrews — WDF6271 — position and weather

sailwx.info

Track history (hours):
 
Tides and Currents Weather Stations Pressure Air Temp Water Temp Dewpoint Dewpoint Depression Visibility Wind Speed Wind Dir Waves Ship Positions

Mccrews

Owner: McAllister Towing & Transportation Company Inc., Staten Island, NY. More information available from US FCC via Universal Licensing System and Coast Guard Vessel Documentation Center.

Last reported at 2017-Dec-19 01:27 UTC. Time now 2018-Jan-20 15:25 UTC.
Position N 39°53' W 075°11'.
Warning: this ship's position is 32 days out of date.

Length 13 m; draft 2 m.

Type: Pilot. MMSI: 367472490.

Date/timePositionNaut miles runAvg speedWind from/ knotsBaromVisibWave heightAir tempDewpointWater temp
2017-Dec-19 01:27N 39°53' W 075°11'2 2.9
2017-Dec-19 00:55N 39°52' W 075°13'1 1.9
2017-Dec-19 00:28N 39°53' W 075°12'1 2.6
2017-Dec-18 23:59N 39°53' W 075°11'0 0.0
2017-Dec-18 23:30N 39°53' W 075°11'3 6.1
2017-Dec-18 22:58N 39°51' W 075°14'1 2.3
2017-Dec-18 22:26N 39°51' W 075°16'4 9.1
2017-Dec-18 21:58N 39°53' W 075°11'0 0.1
2017-Dec-18 19:28N 39°53' W 075°11'1 1.5
2017-Dec-18 19:00N 39°53' W 075°12'4 7.6
2017-Dec-18 18:30N 39°51' W 075°16'2 3.8
2017-Dec-18 18:00N 39°52' W 075°14'3 1.7
2017-Dec-18 16:28N 39°53' W 075°11'2 4.7
2017-Dec-18 16:01N 39°52' W 075°13'2 3.5
2017-Dec-18 15:30N 39°53' W 075°11'1 2.2
2017-Dec-18 15:01N 39°53' W 075°10'0 0.0
2017-Dec-18 14:31N 39°53' W 075°10'1 2.3
2017-Dec-18 14:00N 39°53' W 075°11'1 2.3
2017-Dec-18 13:31N 39°54' W 075°12'0 0.0
2017-Dec-18 13:00N 39°54' W 075°12'1 2.4
2017-Dec-18 12:31N 39°53' W 075°11'  
2017-Dec-15 12:42N 39°53' W 075°11'0 0.0
2017-Dec-15 12:30N 39°53' W 075°11'0 0.0
2017-Dec-14 15:01N 39°53' W 075°11'0 0.0
2017-Dec-14 04:44N 39°53' W 075°11'1 6.4
2017-Dec-14 04:30N 39°52' W 075°12'0 0.2
2017-Dec-14 04:00N 39°52' W 075°12'0 0.0
2017-Dec-14 03:30N 39°52' W 075°12'1 2.1
2017-Dec-14 03:00N 39°53' W 075°11'0 0.6
2017-Dec-14 02:14N 39°53' W 075°11'1 6.6
2017-Dec-14 02:00N 39°52' W 075°12'1 0.6
2017-Dec-13 23:28N 39°53' W 075°11'0 0.3
2017-Dec-13 23:00N 39°53' W 075°11'0 0.0
2017-Dec-13 19:27N 39°53' W 075°11'2 4.7
2017-Dec-13 19:00N 39°54' W 075°08'3 7.0
2017-Dec-13 18:30N 39°52' W 075°12'1 2.6
2017-Dec-13 18:00N 39°54' W 075°12'1 2.0
2017-Dec-13 17:30N 39°53' W 075°11'0 1.0
2017-Dec-13 17:00N 39°53' W 075°12'1 1.4
2017-Dec-13 16:24N 39°53' W 075°11'1 3.2
2017-Dec-13 16:00N 39°52' W 075°12'1 0.9
2017-Dec-13 14:36N 39°53' W 075°11'0 0.6
2017-Dec-13 14:30N 39°53' W 075°11'1 1.3
2017-Dec-13 14:01N 39°53' W 075°10'1 0.6
2017-Dec-13 12:49N 39°53' W 075°11'0 0.0
2017-Dec-13 12:30N 39°53' W 075°11'0 0.0
2017-Dec-12 19:27N 39°53' W 075°11'1 1.5
2017-Dec-12 19:00N 39°53' W 075°12'1 0.2
2017-Dec-12 16:35N 39°53' W 075°11'210.3
2017-Dec-12 16:25N 39°52' W 075°13'2 4.7
2017-Dec-12 16:00N 39°53' W 075°11'0 0.0
2017-Dec-12 13:01N 39°53' W 075°11'0 0.0
2017-Dec-12 13:00N 39°53' W 075°11'0 0.0
2017-Dec-12 12:28N 39°53' W 075°11'0 0.0
2017-Dec-11 20:18N 39°53' W 075°11'3 9.4
2017-Dec-11 20:01N 39°51' W 075°14'0 0.6
2017-Dec-11 19:30N 39°52' W 075°13'3 5.0
2017-Dec-11 19:01N 39°53' W 075°11'0 0.0
2017-Dec-09 16:11N 39°53' W 075°11'1 4.2
2017-Dec-09 16:00N 39°53' W 075°12'4 8.2
2017-Dec-09 15:30N 39°51' W 075°16'0 0.4
2017-Dec-09 15:01N 39°51' W 075°16'5 9.2
2017-Dec-09 14:30N 39°53' W 075°11'  
Track history (hours):
 
Tides and Currents Weather Stations Pressure Air Temp Water Temp Dewpoint Dewpoint Depression Visibility Wind Speed Wind Dir Waves Ship Positions

Mccrews

Owner: McAllister Towing & Transportation Company Inc., Staten Island, NY. More information available from US FCC via Universal Licensing System and Coast Guard Vessel Documentation Center.

Last reported at 2017-Dec-19 01:27 UTC. Time now 2018-Jan-20 15:25 UTC.
Position N 39°53' W 075°11'.
Warning: this ship's position is 32 days out of date.

Length 13 m; draft 2 m.

Type: Pilot. MMSI: 367472490.

Date/timePositionNaut miles runAvg speedWind from/ knotsBaromVisibWave heightAir tempDewpointWater temp
2017-Dec-19 01:27N 39°53' W 075°11'2 2.9
2017-Dec-19 00:55N 39°52' W 075°13'1 1.9
2017-Dec-19 00:28N 39°53' W 075°12'1 2.6
2017-Dec-18 23:59N 39°53' W 075°11'0 0.0
2017-Dec-18 23:30N 39°53' W 075°11'3 6.1
2017-Dec-18 22:58N 39°51' W 075°14'1 2.3
2017-Dec-18 22:26N 39°51' W 075°16'4 9.1
2017-Dec-18 21:58N 39°53' W 075°11'0 0.1
2017-Dec-18 19:28N 39°53' W 075°11'1 1.5
2017-Dec-18 19:00N 39°53' W 075°12'4 7.6
2017-Dec-18 18:30N 39°51' W 075°16'2 3.8
2017-Dec-18 18:00N 39°52' W 075°14'3 1.7
2017-Dec-18 16:28N 39°53' W 075°11'2 4.7
2017-Dec-18 16:01N 39°52' W 075°13'2 3.5
2017-Dec-18 15:30N 39°53' W 075°11'1 2.2
2017-Dec-18 15:01N 39°53' W 075°10'0 0.0
2017-Dec-18 14:31N 39°53' W 075°10'1 2.3
2017-Dec-18 14:00N 39°53' W 075°11'1 2.3
2017-Dec-18 13:31N 39°54' W 075°12'0 0.0
2017-Dec-18 13:00N 39°54' W 075°12'1 2.4
2017-Dec-18 12:31N 39°53' W 075°11'  
2017-Dec-15 12:42N 39°53' W 075°11'0 0.0
2017-Dec-15 12:30N 39°53' W 075°11'0 0.0
2017-Dec-14 15:01N 39°53' W 075°11'0 0.0
2017-Dec-14 04:44N 39°53' W 075°11'1 6.4
2017-Dec-14 04:30N 39°52' W 075°12'0 0.2
2017-Dec-14 04:00N 39°52' W 075°12'0 0.0
2017-Dec-14 03:30N 39°52' W 075°12'1 2.1
2017-Dec-14 03:00N 39°53' W 075°11'0 0.6
2017-Dec-14 02:14N 39°53' W 075°11'1 6.6
2017-Dec-14 02:00N 39°52' W 075°12'1 0.6
2017-Dec-13 23:28N 39°53' W 075°11'0 0.3
2017-Dec-13 23:00N 39°53' W 075°11'0 0.0
2017-Dec-13 19:27N 39°53' W 075°11'2 4.7
2017-Dec-13 19:00N 39°54' W 075°08'3 7.0
2017-Dec-13 18:30N 39°52' W 075°12'1 2.6
2017-Dec-13 18:00N 39°54' W 075°12'1 2.0
2017-Dec-13 17:30N 39°53' W 075°11'0 1.0
2017-Dec-13 17:00N 39°53' W 075°12'1 1.4
2017-Dec-13 16:24N 39°53' W 075°11'1 3.2
2017-Dec-13 16:00N 39°52' W 075°12'1 0.9
2017-Dec-13 14:36N 39°53' W 075°11'0 0.6
2017-Dec-13 14:30N 39°53' W 075°11'1 1.3
2017-Dec-13 14:01N 39°53' W 075°10'1 0.6
2017-Dec-13 12:49N 39°53' W 075°11'0 0.0
2017-Dec-13 12:30N 39°53' W 075°11'0 0.0
2017-Dec-12 19:27N 39°53' W 075°11'1 1.5
2017-Dec-12 19:00N 39°53' W 075°12'1 0.2
2017-Dec-12 16:35N 39°53' W 075°11'210.3
2017-Dec-12 16:25N 39°52' W 075°13'2 4.7
2017-Dec-12 16:00N 39°53' W 075°11'0 0.0
2017-Dec-12 13:01N 39°53' W 075°11'0 0.0
2017-Dec-12 13:00N 39°53' W 075°11'0 0.0
2017-Dec-12 12:28N 39°53' W 075°11'0 0.0
2017-Dec-11 20:18N 39°53' W 075°11'3 9.4
2017-Dec-11 20:01N 39°51' W 075°14'0 0.6
2017-Dec-11 19:30N 39°52' W 075°13'3 5.0
2017-Dec-11 19:01N 39°53' W 075°11'0 0.0
2017-Dec-09 16:11N 39°53' W 075°11'1 4.2
2017-Dec-09 16:00N 39°53' W 075°12'4 8.2
2017-Dec-09 15:30N 39°51' W 075°16'0 0.4
2017-Dec-09 15:01N 39°51' W 075°16'5 9.2
2017-Dec-09 14:30N 39°53' W 075°11'  

Dump ship's entire track history